Time;durP1;ratioP1;P1;durP2;ratioP2;P2;SDS_P1;SDS_P2;PMS_P1;PMS_P2;Temp;Humidity;BMP_temperature;BMP_pressure;BME280_temperature;BME280_humidity;BME280_pressure;Samples;Min_cycle;Max_cycle;Signal;HPM_P1;HPM_P2
2022/01/22 00:01:39;;;;;;;12.37;5.83;;;0.40;2201.60;;;;;;5074042;28;20115;-79
2022/01/22 00:04:05;;;;;;;12.33;6.33;;;0.40;2201.60;;;;;;5073725;28;20469;-77
2022/01/22 00:06:31;;;;;;;16.23;5.33;;;0.40;2201.60;;;;;;5073775;28;20493;-78
2022/01/22 00:08:57;;;;;;;20.47;6.73;;;0.40;2201.60;;;;;;5073328;28;20358;-78
2022/01/22 00:11:23;;;;;;;16.40;5.47;;;0.40;2201.60;;;;;;5073698;28;20035;-77
2022/01/22 00:16:33;;;;;;;14.20;6.07;;;0.30;2201.60;;;;;;5073563;28;20047;-71
2022/01/22 00:18:59;;;;;;;11.23;5.30;;;0.40;2201.60;;;;;;5073224;28;20029;-78
2022/01/22 00:21:24;;;;;;;9.57;4.93;;;0.30;2201.60;;;;;;5073710;28;20037;-79
2022/01/22 00:23:56;;;;;;;9.97;4.73;;;0.40;2201.60;;;;;;5073205;28;20541;-79
2022/01/22 00:26:22;;;;;;;11.20;5.10;;;0.30;2201.60;;;;;;5073331;28;20033;-68
2022/01/22 00:28:48;;;;;;;10.57;5.37;;;0.30;2201.60;;;;;;5073018;28;20024;-75
2022/01/22 00:31:14;;;;;;;9.87;4.77;;;0.30;2201.60;;;;;;5072961;28;20044;-69
2022/01/22 00:33:40;;;;;;;10.63;5.10;;;0.40;2201.60;;;;;;5073216;28;20028;-79
2022/01/22 00:36:06;;;;;;;10.93;4.90;;;0.40;2201.60;;;;;;5072879;28;20043;-76
2022/01/22 00:38:31;;;;;;;10.90;4.57;;;0.40;2201.60;;;;;;5073193;28;20021;-80
2022/01/22 00:40:57;;;;;;;9.37;4.83;;;0.50;2201.60;;;;;;5073041;28;20028;-69
2022/01/22 00:43:23;;;;;;;8.03;4.23;;;0.50;2201.60;;;;;;5073643;28;20023;-69
2022/01/22 00:45:49;;;;;;;9.53;3.80;;;0.50;2201.60;;;;;;5072320;28;20055;-70
2022/01/22 00:48:15;;;;;;;9.57;4.07;;;0.60;2201.60;;;;;;5073555;28;20104;-67
2022/01/22 00:50:41;;;;;;;7.37;4.10;;;0.60;2201.60;;;;;;5073344;28;20029;-68
2022/01/22 00:53:07;;;;;;;9.30;3.57;;;0.50;2201.60;;;;;;5073296;28;20082;-81
2022/01/22 00:55:33;;;;;;;9.03;3.33;;;0.50;2201.60;;;;;;5073125;28;20036;-70
2022/01/22 00:57:58;;;;;;;8.43;4.00;;;0.50;2201.60;;;;;;5073412;28;20021;-69
2022/01/22 01:00:24;;;;;;;8.17;4.00;;;0.50;2201.60;;;;;;5073493;28;20469;-79
2022/01/22 01:02:50;;;;;;;10.77;3.70;;;0.60;2201.60;;;;;;5073331;28;20115;-78
2022/01/22 01:05:16;;;;;;;7.63;3.80;;;0.50;2201.60;;;;;;5073661;28;20040;-79
2022/01/22 01:07:42;;;;;;;7.30;3.43;;;0.60;2201.60;;;;;;5073585;28;20025;-69
2022/01/22 01:10:13;;;;;;;11.63;4.00;;;0.50;2201.60;;;;;;5073525;28;20526;-79
2022/01/22 01:12:40;;;;;;;7.93;3.73;;;0.60;2201.60;;;;;;5073784;28;20420;-79
2022/01/22 01:32:10;;;;;;;8.37;4.40;;;0.50;2201.60;;;;;;5057185;28;20043;-78
2022/01/22 01:32:16;;;;;;;7.65;3.45;;;0.10;2201.60;;;;;;5073299;28;20021;-72
2022/01/22 01:34:44;;;;;;;10.93;4.03;;;0.10;2201.60;;;;;;5073445;28;20107;-69
2022/01/22 01:37:13;;;;;;;8.63;3.80;;;0.20;2201.60;;;;;;5073079;28;20056;-69
2022/01/22 01:39:40;;;;;;;10.67;4.10;;;0.10;2201.60;;;;;;5073471;28;20033;-69
2022/01/22 01:42:14;;;;;;;10.03;4.07;;;0.10;2201.60;;;;;;5073115;28;20028;-78
2022/01/22 01:44:40;;;;;;;;;;;0.00;2201.60;;;;;;5073639;28;20505;-69
2022/01/22 01:47:10;;;;;;;8.23;3.77;;;0.00;2201.60;;;;;;5073128;28;20418;-78
2022/01/22 01:49:36;;;;;;;9.40;3.13;;;0.00;2201.60;;;;;;5073317;28;20020;-78
2022/01/22 01:52:07;;;;;;;7.90;4.17;;;0.00;2201.60;;;;;;5073021;28;20082;-68
2022/01/22 01:54:47;;;;;;;9.13;4.20;;;12.90;2201.60;;;;;;5072957;28;20112;-68
2022/01/22 01:57:32;;;;;;;9.57;3.73;;;12.90;2201.60;;;;;;5073139;28;20016;-69
2022/01/22 01:59:59;;;;;;;8.13;4.70;;;12.90;2201.60;;;;;;5073075;28;20021;-79
2022/01/22 02:02:29;;;;;;;8.03;3.97;;;12.90;2201.60;;;;;;5073020;28;20017;-78
2022/01/22 02:04:55;;;;;;;7.97;3.70;;;12.90;2201.60;;;;;;5072924;28;20050;-79
2022/01/22 02:07:21;;;;;;;8.87;3.67;;;12.90;2201.60;;;;;;5073001;28;20020;-68
2022/01/22 02:09:47;;;;;;;8.67;4.43;;;12.90;2201.60;;;;;;5073173;28;20374;-69
2022/01/22 02:12:32;;;;;;;8.97;3.83;;;12.90;2201.60;;;;;;5072967;28;20028;-79
2022/01/22 02:23:36;;;;;;;7.50;3.58;;;13.00;2201.60;;;;;;5076930;28;19931;-68
2022/01/22 02:26:04;;;;;;;7.37;3.77;;;13.00;2201.60;;;;;;5076474;28;20041;-68
2022/01/22 02:28:32;;;;;;;7.53;3.67;;;13.10;2201.60;;;;;;5076438;28;20469;-68
2022/01/22 02:36:28;;;;;;;9.33;4.00;;;13.10;2201.60;;;;;;5054244;28;20029;-68
2022/01/22 02:39:04;;;;;;;7.53;4.23;;;13.10;2201.60;;;;;;5054483;28;20123;-68
2022/01/22 02:41:30;;;;;;;9.37;4.20;;;13.20;2201.60;;;;;;5054175;28;20037;-68
2022/01/22 02:43:56;;;;;;;7.23;4.07;;;13.20;2201.60;;;;;;5054102;28;20036;-68
2022/01/22 02:46:25;;;;;;;9.00;3.73;;;13.30;2201.60;;;;;;5054076;28;20029;-68
2022/01/22 02:48:54;;;;;;;7.20;3.57;;;13.30;2201.60;;;;;;5054045;28;20413;-68
2022/01/22 02:51:24;;;;;;;7.77;4.17;;;13.30;2201.60;;;;;;5054390;28;20037;-68
2022/01/22 02:53:53;;;;;;;6.17;3.57;;;13.30;2201.60;;;;;;5054150;28;20029;-69
2022/01/22 02:56:21;;;;;;;6.97;3.93;;;13.40;2201.60;;;;;;5053782;28;20440;-72
2022/01/22 02:58:47;;;;;;;11.30;4.27;;;13.40;2201.60;;;;;;5054005;28;20047;-78
2022/01/22 03:01:15;;;;;;;8.10;4.27;;;13.50;2201.60;;;;;;5053783;28;20100;-78
2022/01/22 03:03:42;;;;;;;10.00;4.13;;;13.50;2201.60;;;;;;5053685;28;20079;-69
2022/01/22 03:06:08;;;;;;;10.37;4.37;;;;;;;;;;5053677;28;20554;-79
2022/01/22 03:08:34;;;;;;;7.37;4.23;;;13.60;2201.60;;;;;;5053465;28;20461;-78
2022/01/22 03:11:04;;;;;;;10.67;4.60;;;13.50;2201.60;;;;;;5068266;28;20047;-68
2022/01/22 03:19:08;;;;;;;9.27;4.68;;;13.40;2201.60;;;;;;5075559;28;20095;-78
2022/01/22 03:21:56;;;;;;;11.17;4.30;;;13.40;2201.60;;;;;;5075399;28;20035;-78
2022/01/22 03:27:40;;;;;;;10.23;4.20;;;13.40;2201.60;;;;;;5075905;28;20373;-77
2022/01/22 03:32:32;;;;;;;6.57;3.40;;;13.40;2201.60;;;;;;5074049;28;20101;-77
2022/01/22 03:35:10;;;;;;;7.47;4.50;;;13.40;2201.60;;;;;;5073820;28;20029;-77
2022/01/22 03:37:38;;;;;;;10.17;4.50;;;13.30;2201.60;;;;;;5075468;28;20036;-77
2022/01/22 03:40:05;;;;;;;9.77;4.57;;;13.30;2201.60;;;;;;5075080;28;20024;-68
2022/01/22 03:42:31;;;;;;;9.10;4.63;;;13.30;2201.60;;;;;;5074962;28;20127;-69
2022/01/22 03:44:56;;;;;;;10.80;4.80;;;13.30;2201.60;;;;;;5074923;28;20056;-78
2022/01/22 03:47:22;;;;;;;8.63;4.00;;;13.20;2201.60;;;;;;5074999;28;20095;-77
2022/01/22 03:49:48;;;;;;;8.73;4.37;;;13.20;2201.60;;;;;;5074877;28;20021;-78
2022/01/22 03:52:14;;;;;;;12.07;4.40;;;13.20;2201.60;;;;;;5075098;28;20056;-78
2022/01/22 03:54:40;;;;;;;8.53;4.37;;;13.20;2201.60;;;;;;5075279;28;20071;-68
2022/01/22 03:57:07;;;;;;;9.67;4.57;;;13.30;2201.60;;;;;;5074839;28;20496;-67
2022/01/22 03:59:33;;;;;;;11.07;4.10;;;13.30;2201.60;;;;;;5074748;28;20047;-71
2022/01/22 04:10:01;;;;;;;9.63;4.70;;;13.30;2201.60;;;;;;5075079;28;20032;-71
2022/01/22 04:13:12;;;;;;;9.27;5.30;;;13.30;2201.60;;;;;;5074729;28;20097;-71
2022/01/22 04:15:20;;;;;;;8.87;4.80;;;13.30;2201.60;;;;;;5065980;28;20523;-68
2022/01/22 04:25:53;;;;;;;14.87;6.00;;;13.30;2201.60;;;;;;5074505;28;20024;-68
2022/01/22 04:28:19;;;;;;;19.55;8.30;;;13.30;2201.60;;;;;;5074210;28;20024;-68
2022/01/22 04:30:46;;;;;;;18.57;8.40;;;13.30;2201.60;;;;;;5074185;28;20028;-68
2022/01/22 04:33:12;;;;;;;13.07;6.60;;;13.40;2201.60;;;;;;5074116;28;20492;-68
2022/01/22 04:35:38;;;;;;;11.03;6.73;;;13.40;2201.60;;;;;;5073456;28;20029;-77
2022/01/22 04:38:04;;;;;;;13.27;6.23;;;13.50;2201.60;;;;;;5073777;28;20027;-76
2022/01/22 04:40:30;;;;;;;13.00;6.30;;;13.50;2201.60;;;;;;5073944;28;20058;-76
2022/01/22 04:42:57;;;;;;;12.17;6.50;;;13.60;2201.60;;;;;;5073955;28;20056;-78
2022/01/22 04:55:42;;;;;;;20.63;7.83;;;13.60;2201.60;;;;;;5073758;28;20024;-78
2022/01/22 04:58:09;;;;;;;20.87;8.63;;;13.70;2201.60;;;;;;5074110;28;20027;-79
2022/01/22 05:00:37;;;;;;;18.83;8.03;;;13.70;2201.60;;;;;;5073667;28;20028;-77
2022/01/22 05:03:05;;;;;;;16.33;6.87;;;13.60;2201.60;;;;;;5074052;28;20016;-68
2022/01/22 05:05:31;;;;;;;15.90;7.70;;;13.70;2201.60;;;;;;5072360;28;20028;-78
2022/01/22 05:07:57;;;;;;;17.47;6.97;;;13.60;2201.60;;;;;;5073531;28;20498;-79
2022/01/22 05:10:24;;;;;;;17.03;7.57;;;13.70;2201.60;;;;;;5073523;28;20024;-79
2022/01/22 05:12:51;;;;;;;16.83;7.73;;;13.70;2201.60;;;;;;5073424;28;20029;-69
2022/01/22 05:15:17;;;;;;;20.53;8.23;;;13.70;2201.60;;;;;;5073272;28;20041;-67
2022/01/22 05:17:45;;;;;;;18.13;7.63;;;13.60;2201.60;;;;;;5073525;28;20016;-78
2022/01/22 05:20:34;;;;;;;21.27;7.53;;;13.60;2201.60;;;;;;5073603;28;20021;-68
2022/01/22 05:23:11;;;;;;;17.70;7.30;;;13.60;2201.60;;;;;;5073432;28;20029;-68
2022/01/22 05:25:56;;;;;;;21.23;8.50;;;13.60;2201.60;;;;;;5073402;28;20028;-72
2022/01/22 05:31:22;;;;;;;25.73;9.70;;;13.50;2201.60;;;;;;5073985;28;20035;-69
2022/01/22 05:39:09;;;;;;;23.50;11.37;;;13.40;2201.60;;;;;;5073421;28;20095;-77
2022/01/22 05:41:37;;;;;;;16.60;8.70;;;13.40;2201.60;;;;;;5073886;28;20021;-78
2022/01/22 05:44:03;;;;;;;10.23;5.70;;;13.40;2201.60;;;;;;5073457;28;20052;-68
2022/01/22 05:46:29;;;;;;;11.77;5.30;;;13.40;2201.60;;;;;;5073212;28;20028;-68
2022/01/22 05:48:55;;;;;;;7.17;4.33;;;13.40;2201.60;;;;;;5076914;28;20385;-78
2022/01/22 05:51:22;;;;;;;9.03;4.93;;;13.40;2201.60;;;;;;5077540;28;20025;-68
2022/01/22 06:01:45;;;;;;;20.50;8.13;;;13.30;2201.60;;;;;;5076666;28;20039;-77
2022/01/22 06:04:11;;;;;;;19.93;10.57;;;13.30;2201.60;;;;;;5077022;28;20021;-68
2022/01/22 06:06:36;;;;;;;20.03;8.87;;;13.30;2201.60;;;;;;5077205;28;20029;-76
2022/01/22 06:09:07;;;;;;;11.00;5.53;;;13.20;2201.60;;;;;;5076817;28;20480;-77
2022/01/22 06:11:40;;;;;;;34.93;15.37;;;13.20;2201.60;;;;;;5077151;28;20024;-75
2022/01/22 06:14:06;;;;;;;12.93;5.32;;;13.20;2201.60;;;;;;5076665;28;20044;-76
2022/01/22 06:16:32;;;;;;;13.33;5.70;;;13.20;2201.60;;;;;;5076842;28;20086;-68
2022/01/22 06:18:58;;;;;;;14.57;5.50;;;13.10;2201.60;;;;;;5076545;28;20024;-78
2022/01/22 06:21:24;;;;;;;15.87;7.23;;;13.10;2201.60;;;;;;5076783;28;20469;-69
2022/01/22 06:23:50;;;;;;;19.07;9.07;;;13.10;2201.60;;;;;;5076277;28;20421;-68
2022/01/22 06:26:16;;;;;;;18.40;9.30;;;13.10;2201.60;;;;;;5076000;28;20024;-76
2022/01/22 06:28:42;;;;;;;21.63;9.90;;;13.10;2201.60;;;;;;5076569;28;20074;-68
2022/01/22 06:31:09;;;;;;;16.40;7.50;;;13.00;2201.60;;;;;;5076325;28;20025;-79
2022/01/22 06:33:35;;;;;;;16.40;6.77;;;13.00;2201.60;;;;;;5076248;28;20028;-80
2022/01/22 06:36:01;;;;;;;12.73;6.17;;;12.90;2201.60;;;;;;5076430;28;20044;-78
2022/01/22 06:38:27;;;;;;;12.63;7.17;;;12.90;2201.60;;;;;;5075991;28;20438;-70
2022/01/22 06:43:37;;;;;;;19.43;8.63;;;0.00;2201.60;;;;;;5076204;28;20073;-78
2022/01/22 06:46:03;;;;;;;25.63;11.00;;;0.00;2201.60;;;;;;5075829;28;20036;-78
2022/01/22 06:48:29;;;;;;;24.57;11.20;;;0.00;2201.60;;;;;;5075445;28;20064;-77
2022/01/22 06:50:55;;;;;;;25.13;9.00;;;0.10;2201.60;;;;;;5075452;28;20481;-72
2022/01/22 06:53:21;;;;;;;24.93;10.20;;;0.00;2201.60;;;;;;5075571;28;20026;-68
2022/01/22 06:55:55;;;;;;;21.00;8.83;;;0.00;2201.60;;;;;;5075273;28;20025;-77
2022/01/22 06:58:22;;;;;;;14.00;7.83;;;12.90;2201.60;;;;;;5074321;28;20024;-69
2022/01/22 07:00:47;;;;;;;33.57;10.00;;;13.00;2201.60;;;;;;5074764;28;20024;-69
2022/01/22 07:03:13;;;;;;;23.47;11.37;;;13.10;2201.60;;;;;;5075317;28;20029;-79
2022/01/22 07:05:39;;;;;;;33.70;16.00;;;13.10;2201.60;;;;;;5073968;28;20020;-71
2022/01/22 07:08:05;;;;;;;39.93;16.87;;;13.10;2201.60;;;;;;5075455;28;20075;-75
2022/01/22 07:10:31;;;;;;;22.90;12.20;;;13.10;2201.60;;;;;;5075709;28;20028;-69
2022/01/22 07:12:57;;;;;;;28.27;14.60;;;13.10;2201.60;;;;;;5075207;28;20457;-67
2022/01/22 07:15:23;;;;;;;30.70;14.03;;;13.20;2201.60;;;;;;5074855;28;20050;-76
2022/01/22 07:17:49;;;;;;;21.37;11.80;;;13.10;2201.60;;;;;;5075368;28;20250;-68
2022/01/22 07:20:18;;;;;;;19.90;10.80;;;13.10;2201.60;;;;;;5074884;28;20108;-67
2022/01/22 07:22:53;;;;;;;23.90;10.93;;;13.10;2201.60;;;;;;5075254;28;20029;-76
2022/01/22 07:25:19;;;;;;;23.17;12.27;;;13.10;2201.60;;;;;;5075200;28;20058;-77
2022/01/22 07:27:45;;;;;;;26.03;12.50;;;13.10;2201.60;;;;;;5071887;28;20048;-71
2022/01/22 07:30:11;;;;;;;25.17;14.30;;;13.00;2201.60;;;;;;5075086;28;20024;-67
2022/01/22 07:32:41;;;;;;;23.60;12.50;;;13.00;2201.60;;;;;;5075540;28;20078;-75
2022/01/22 07:35:08;;;;;;;25.10;14.10;;;13.00;2201.60;;;;;;5074813;28;20036;-75
2022/01/22 07:37:36;;;;;;;21.17;12.67;;;13.00;2201.60;;;;;;5075058;28;20055;-73
2022/01/22 07:40:06;;;;;;;26.17;14.60;;;13.00;2201.60;;;;;;5075376;28;20369;-75
2022/01/22 07:42:32;;;;;;;27.37;13.97;;;13.00;2201.60;;;;;;5075140;28;20060;-74
2022/01/22 07:44:58;;;;;;;21.30;11.67;;;13.00;2201.60;;;;;;5075061;28;20419;-74
2022/01/22 07:47:24;;;;;;;31.70;15.50;;;12.90;2201.60;;;;;;5075086;28;20048;-67
2022/01/22 07:49:50;;;;;;;22.70;11.93;;;13.00;2201.60;;;;;;5075360;28;20067;-76
2022/01/22 07:52:16;;;;;;;40.50;16.73;;;13.00;2201.60;;;;;;5075183;28;20063;-68
2022/01/22 07:54:42;;;;;;;37.57;17.33;;;13.00;2201.60;;;;;;5074799;28;20040;-67
2022/01/22 07:57:08;;;;;;;50.03;24.80;;;13.00;2201.60;;;;;;5074820;28;20039;-75
2022/01/22 07:59:34;;;;;;;37.03;18.90;;;13.00;2201.60;;;;;;5073822;28;20031;-77
2022/01/22 08:02:03;;;;;;;27.53;14.77;;;13.00;2201.60;;;;;;5073293;28;20105;-77
2022/01/22 08:04:29;;;;;;;33.67;17.77;;;13.00;2201.60;;;;;;5072223;28;20032;-71
2022/01/22 08:06:57;;;;;;;34.60;18.80;;;12.90;2201.60;;;;;;5073376;28;20111;-68
2022/01/22 08:09:23;;;;;;;32.03;17.80;;;12.90;2201.60;;;;;;5073484;28;20028;-70
2022/01/22 08:11:49;;;;;;;41.40;21.33;;;0.00;2201.60;;;;;;5073583;28;20040;-70
2022/01/22 08:14:16;;;;;;;42.70;19.37;;;0.10;2201.60;;;;;;5073105;28;20390;-76
2022/01/22 08:16:46;;;;;;;38.13;19.93;;;0.10;2201.60;;;;;;5073310;28;20123;-70
2022/01/22 08:19:11;;;;;;;38.47;19.13;;;0.20;2201.60;;;;;;5073039;28;20024;-69
2022/01/22 08:21:37;;;;;;;35.20;19.50;;;0.20;2201.60;;;;;;5072524;28;20032;-77
2022/01/22 08:24:04;;;;;;;36.27;19.37;;;0.20;2201.60;;;;;;5072850;28;20021;-74
2022/01/22 08:26:34;;;;;;;120.93;49.80;;;0.20;2201.60;;;;;;5072996;28;20068;-74
2022/01/22 08:29:02;;;;;;;98.77;37.23;;;0.20;2201.60;;;;;;5073583;28;20048;-75
2022/01/22 08:36:42;;;;;;;37.40;17.50;;;0.50;2201.60;;;;;;5072554;28;20090;-76
2022/01/22 08:39:09;;;;;;;34.60;17.37;;;0.50;2201.60;;;;;;5071411;28;20043;-71
2022/01/22 08:41:35;;;;;;;39.40;20.60;;;0.50;2201.60;;;;;;5072703;28;20032;-70
2022/01/22 08:44:02;;;;;;;37.13;18.50;;;0.60;2201.60;;;;;;5071289;28;20070;-69
2022/01/22 08:46:28;;;;;;;26.67;15.13;;;0.50;2201.60;;;;;;5072750;28;20024;-74
2022/01/22 08:48:54;;;;;;;24.60;14.13;;;0.50;2201.60;;;;;;5073080;28;20058;-69
2022/01/22 08:51:20;;;;;;;25.63;15.00;;;0.60;2201.60;;;;;;5072490;28;20393;-73
2022/01/22 08:53:50;;;;;;;35.37;19.60;;;0.70;2201.60;;;;;;5072298;28;20039;-69
2022/01/22 08:56:17;;;;;;;30.57;17.27;;;0.90;2201.60;;;;;;5072554;28;20036;-70
2022/01/22 08:58:43;;;;;;;30.03;17.00;;;25.60;2201.60;;;;;;5072279;28;20523;-72
2022/01/22 09:01:10;;;;;;;29.90;17.20;;;25.60;2201.60;;;;;;5072286;28;20469;-72
2022/01/22 09:03:36;;;;;;;35.07;19.57;;;0.90;2201.60;;;;;;5072125;28;20012;-75
2022/01/22 09:06:04;;;;;;;34.57;19.30;;;0.90;2201.60;;;;;;5072085;28;20115;-69
2022/01/22 09:08:30;;;;;;;39.50;21.27;;;0.90;2201.60;;;;;;5070813;28;20024;-70
2022/01/22 09:10:56;;;;;;;27.37;16.33;;;0.90;2201.60;;;;;;5072072;28;20025;-70
2022/01/22 09:13:24;;;;;;;33.37;17.67;;;0.90;2201.60;;;;;;5071893;28;20377;-70
2022/01/22 09:15:53;;;;;;;43.97;23.60;;;25.60;2201.60;;;;;;5071918;28;20060;-69
2022/01/22 09:18:19;;;;;;;41.73;23.43;;;25.70;2201.60;;;;;;5071987;28;20028;-69
2022/01/22 09:21:01;;;;;;;44.87;23.50;;;25.80;2201.60;;;;;;5072304;28;20074;-68
2022/01/22 09:23:29;;;;;;;43.27;23.70;;;26.00;2201.60;;;;;;5072265;28;20052;-69
2022/01/22 09:25:55;;;;;;;31.70;17.50;;;26.10;2201.60;;;;;;5072563;28;20077;-71
2022/01/22 09:28:22;;;;;;;34.50;21.20;;;26.30;2201.60;;;;;;5072607;28;20024;-69
2022/01/22 09:30:48;;;;;;;41.57;22.83;;;51.20;2227.20;;;;;;5072052;28;20021;-72
2022/01/22 09:33:15;;;;;;;33.13;18.93;;;51.40;2227.20;;;;;;5072276;28;20082;-69
2022/01/22 09:35:41;;;;;;;31.70;19.10;;;51.40;2227.20;;;;;;5072412;28;20039;-69
2022/01/22 09:38:07;;;;;;;35.10;19.60;;;51.40;2227.20;;;;;;5072430;28;20024;-71
2022/01/22 09:40:33;;;;;;;29.03;17.63;;;51.50;2227.20;;;;;;5072566;28;20032;-70
2022/01/22 09:43:00;;;;;;;26.87;16.90;;;51.50;2227.20;;;;;;5072338;28;20028;-70
2022/01/22 09:45:30;;;;;;;23.47;15.27;;;51.40;2227.20;;;;;;5072393;28;20024;-74
2022/01/22 09:47:59;;;;;;;23.90;15.10;;;51.30;2227.20;;;;;;5072298;28;20100;-67
2022/01/22 09:50:29;;;;;;;29.10;17.80;;;51.30;2227.20;;;;;;5072466;28;20404;-70
2022/01/22 09:52:55;;;;;;;29.83;18.77;;;51.30;2227.20;;;;;;5072545;28;20384;-72
2022/01/22 09:55:22;;;;;;;82.97;36.27;;;51.50;2227.20;;;;;;5071658;28;20414;-78
2022/01/22 09:57:48;;;;;;;24.00;14.63;;;51.70;2227.20;;;;;;5072190;28;20037;-71
2022/01/22 10:00:15;;;;;;;21.57;13.30;;;52.10;2227.20;;;;;;5072490;28;20112;-67
2022/01/22 10:02:42;;;;;;;20.73;13.30;;;51.70;2227.20;;;;;;5071651;28;20040;-74
2022/01/22 10:05:28;;;;;;;104.60;46.40;;;51.70;2227.20;;;;;;5072296;28;20572;-68
2022/01/22 10:08:14;;;;;;;20.07;13.10;;;51.80;2227.20;;;;;;5070268;28;20023;-73
2022/01/22 10:10:40;;;;;;;23.33;13.33;;;51.90;2227.20;;;;;;5071542;28;20469;-75
2022/01/22 10:13:06;;;;;;;69.90;36.53;;;52.00;2227.20;;;;;;5071646;28;20082;-75
2022/01/22 10:15:35;;;;;;;34.17;19.27;;;51.90;2227.20;;;;;;5071749;28;20060;-71
2022/01/22 10:18:02;;;;;;;27.30;16.37;;;51.80;2227.20;;;;;;5072065;28;20052;-75
2022/01/22 10:20:34;;;;;;;18.27;10.60;;;51.70;2227.20;;;;;;5071975;28;20025;-74
2022/01/22 10:23:05;;;;;;;17.37;11.47;;;51.50;2227.20;;;;;;5072535;28;20111;-74
2022/01/22 10:25:45;;;;;;;22.73;13.70;;;51.50;2227.20;;;;;;5071773;28;20047;-74
2022/01/22 10:28:21;;;;;;;27.70;15.67;;;51.60;2227.20;;;;;;5072600;28;20477;-76
2022/01/22 10:30:51;;;;;;;22.93;12.77;;;51.50;2227.20;;;;;;5072263;28;20026;-76
2022/01/22 10:35:48;;;;;;;25.77;13.57;;;51.20;2227.20;;;;;;5075468;28;20469;-76
2022/01/22 10:38:17;;;;;;;39.70;23.23;;;51.30;2227.20;;;;;;5075555;28;20017;-76
2022/01/22 10:40:44;;;;;;;30.37;17.10;;;51.50;2227.20;;;;;;5072995;28;20048;-74
2022/01/22 10:46:01;;;;;;;;;;;51.70;2227.20;;;;;;5070387;28;20029;-77
2022/01/22 10:48:27;;;;;;;88.70;42.73;;;51.90;2227.20;;;;;;5073360;28;19916;-77
2022/01/22 10:51:14;;;;;;;43.83;24.60;;;52.00;2227.20;;;;;;5075138;28;20485;-78
2022/01/22 10:53:45;;;;;;;36.97;23.17;;;52.00;2227.20;;;;;;5074909;28;20529;-77
2022/01/22 10:56:17;;;;;;;39.03;24.27;;;76.80;2227.20;;;;;;5075163;28;20560;-78
2022/01/22 10:58:59;;;;;;;24.43;14.50;;;76.90;2227.20;;;;;;5075294;28;20028;-76
2022/01/22 11:01:27;;;;;;;25.80;14.33;;;77.00;2227.20;;;;;;5072423;28;20032;-78
2022/01/22 11:04:03;;;;;;;45.80;29.27;;;77.00;2227.20;;;;;;5074895;28;20021;-77
2022/01/22 11:06:29;;;;;;;46.57;29.50;;;77.40;2227.20;;;;;;5073114;28;20492;-73
2022/01/22 11:08:55;;;;;;;80.90;53.77;;;;;;;;;;5074915;28;20029;-78
2022/01/22 11:11:23;;;;;;;26.47;17.70;;;102.70;2227.20;;;;;;5074754;28;20064;-78
2022/01/22 11:13:49;;;;;;;18.63;12.73;;;103.00;2227.20;;;;;;5074573;28;20048;-78
2022/01/22 11:16:17;;;;;;;18.70;12.43;;;102.90;2227.20;;;;;;5075482;28;20082;-75
2022/01/22 11:18:46;;;;;;;24.63;13.77;;;102.80;2227.20;;;;;;5074975;28;20039;-69
2022/01/22 11:21:12;;;;;;;62.57;26.47;;;102.70;2227.20;;;;;;5075301;28;20033;-73
2022/01/22 11:23:38;;;;;;;37.27;18.07;;;102.60;2227.20;;;;;;5075361;28;20020;-76
2022/01/22 11:26:06;;;;;;;37.33;19.30;;;102.40;2227.20;;;;;;5075201;28;20119;-72
2022/01/22 11:28:33;;;;;;;38.50;20.83;;;77.60;2227.20;;;;;;5062181;28;20163;-76
2022/01/22 11:31:01;;;;;;;267.33;85.20;;;77.50;2227.20;;;;;;5055107;28;20370;-69
2022/01/22 11:33:27;;;;;;;51.77;25.47;;;77.50;2227.20;;;;;;5054658;28;20029;-76
2022/01/22 11:36:09;;;;;;;44.93;22.20;;;77.70;2227.20;;;;;;5054978;28;20385;-69
2022/01/22 11:38:36;;;;;;;35.87;17.80;;;103.00;2227.20;;;;;;5054872;28;20071;-75
2022/01/22 11:41:09;;;;;;;67.97;27.97;;;;;;;;;;5056795;28;20104;-75
2022/01/22 11:44:17;;;;;;;60.03;24.02;;;128.10;2252.80;;;;;;5074538;28;20107;-70
2022/01/22 11:46:58;;;;;;;67.90;26.27;;;103.30;2227.20;;;;;;5073872;28;20044;-76
2022/01/22 11:49:30;;;;;;;60.27;20.97;;;103.10;2227.20;;;;;;5074733;28;20025;-75
2022/01/22 11:52:08;;;;;;;102.43;33.43;;;102.90;2227.20;;;;;;5074573;28;20480;-75
2022/01/22 11:54:54;;;;;;;133.07;41.30;;;102.90;2227.20;;;;;;5074709;28;20096;-75
2022/01/22 11:57:22;;;;;;;102.23;34.67;;;103.00;2227.20;;;;;;5074434;28;20473;-75
2022/01/22 11:59:49;;;;;;;54.60;25.47;;;103.00;2227.20;;;;;;5074501;28;20488;-75
2022/01/22 12:02:16;;;;;;;77.47;33.40;;;103.00;2227.20;;;;;;5074269;28;20082;-75
2022/01/22 12:04:41;;;;;;;75.53;32.00;;;103.10;2227.20;;;;;;5074729;28;20032;-75
2022/01/22 12:07:07;;;;;;;51.53;26.77;;;103.10;2227.20;;;;;;5074288;28;20025;-75
2022/01/22 12:15:16;;;;;;;81.57;32.47;;;103.00;2227.20;;;;;;5073905;28;20178;-75
2022/01/22 12:17:49;;;;;;;37.03;16.97;;;102.90;2227.20;;;;;;5074088;28;20035;-75
2022/01/22 12:23:15;;;;;;;166.30;56.63;;;103.20;2227.20;;;;;;5031685;28;20037;-74
2022/01/22 12:25:41;;;;;;;24.63;11.63;;;103.30;2227.20;;;;;;5031983;28;20033;-76
2022/01/22 12:28:09;;;;;;;25.50;11.03;;;103.30;2227.20;;;;;;5032295;28;20033;-75
2022/01/22 12:30:44;;;;;;;21.00;10.27;;;128.80;2252.80;;;;;;5031896;28;20052;-75
2022/01/22 12:33:14;;;;;;;37.60;17.67;;;153.90;2252.80;;;;;;5031552;28;20033;-74
2022/01/22 12:35:43;;;;;;;18.80;10.20;;;179.80;2252.80;;;;;;5031623;28;20033;-76
2022/01/22 12:43:52;;;;;;;23.77;11.70;;;307.20;1817.60;;;;;;5031428;28;20087;-77
2022/01/22 12:46:17;;;;;;;13.43;7.78;;;282.10;1792.00;;;;;;5031434;28;20068;-78
2022/01/22 12:48:48;;;;;;;16.75;8.95;;;281.60;1920.00;;;;;;5031631;28;20065;-78
2022/01/22 12:51:14;;;;;;;14.30;8.85;;;384.50;1561.60;;;;;;5031445;28;20127;-77
2022/01/22 12:53:48;;;;;;;18.40;10.82;;;512.90;1126.40;;;;;;5030922;28;20033;-77
2022/01/22 12:59:01;;;;;;;28.17;15.68;;;640.70;844.80;;;;;;5053889;28;19930;-76
2022/01/22 13:01:30;;;;;;;32.55;15.38;;;666.50;870.40;;;;;;5060609;28;20033;-77
2022/01/22 13:03:57;;;;;;;25.40;13.95;;;717.00;793.60;;;;;;5051009;28;20028;-77
2022/01/22 13:06:37;;;;;;;18.73;10.30;;;640.50;768.00;;;;;;5052498;28;20358;-75
2022/01/22 13:09:03;;;;;;;20.17;10.88;;;512.30;921.60;;;;;;5054861;28;20073;-74
2022/01/22 13:11:32;;;;;;;30.70;15.45;;;563.20;998.40;;;;;;5072797;28;20017;-72
2022/01/22 13:13:59;;;;;;;28.45;13.65;;;537.90;921.60;;;;;;5071956;28;20048;-74
2022/01/22 13:16:25;;;;;;;18.73;10.35;;;512.20;947.20;;;;;;5072804;28;20123;-74
2022/01/22 13:18:58;;;;;;;174.23;49.00;;;538.20;896.00;;;;;;5072687;28;20045;-76
2022/01/22 13:21:29;;;;;;;18.73;11.65;;;538.40;819.20;;;;;;5072679;28;20112;-78
2022/01/22 13:24:01;;;;;;;25.08;13.00;;;589.20;768.00;;;;;;5072654;28;20074;-71
2022/01/22 13:26:51;;;;;;;21.27;12.60;;;640.90;691.20;;;;;;5072651;28;20074;-72
2022/01/22 13:29:24;;;;;;;16.83;10.43;;;717.30;665.60;;;;;;5072681;28;20035;-76
2022/01/22 13:31:59;;;;;;;24.27;14.65;;;742.60;665.60;;;;;;5060073;28;20090;-75
2022/01/22 13:34:38;;;;;;;23.60;12.90;;;793.80;1100.80;;;;;;5052787;28;20051;-71
2022/01/22 13:47:43;;;;;;;18.73;11.05;;;;;;;;;;5071714;28;20093;-81
2022/01/22 13:48:25;;;;;;;22.27;14.48;;;871.10;588.80;;;;;;5071691;28;20526;-78
2022/01/22 13:50:51;;;;;;;34.67;16.23;;;871.20;512.00;;;;;;5070442;28;20397;-71
2022/01/22 13:53:17;;;;;;;35.45;19.92;;;896.00;486.40;;;;;;5071748;28;20024;-72
2022/01/22 13:55:42;;;;;;;32.53;17.08;;;871.10;486.40;;;;;;5072481;28;20040;-78
2022/01/22 13:58:19;;;;;;;26.38;13.02;;;870.70;512.00;;;;;;5072728;28;20552;-78
2022/01/22 14:00:45;;;;;;;15.30;8.43;;;870.80;537.60;;;;;;5072801;28;20017;-77
2022/01/22 14:03:29;;;;;;;28.38;16.95;;;870.60;486.40;;;;;;5072684;28;20024;-72
2022/01/22 14:05:55;;;;;;;;;;;870.50;486.40;;;;;;5072894;28;20079;-78
2022/01/22 14:08:31;;;;;;;22.52;11.35;;;845.30;512.00;;;;;;5073225;28;19908;-78
2022/01/22 14:11:08;;;;;;;24.80;11.35;;;820.00;512.00;;;;;;5076663;28;20032;-75
2022/01/22 14:13:35;;;;;;;25.05;13.25;;;819.80;512.00;;;;;;5076223;28;20524;-78
2022/01/22 14:16:15;;;;;;;43.75;20.75;;;819.40;512.00;;;;;;5076202;28;20439;-79
2022/01/22 14:18:45;;;;;;;68.63;44.33;;;794.10;537.60;;;;;;5075186;28;20039;-79
2022/01/22 14:21:20;;;;;;;109.82;48.22;;;793.70;537.60;;;;;;5076433;28;20516;-79
2022/01/22 14:23:50;;;;;;;101.15;40.65;;;793.70;537.60;;;;;;5076249;28;20093;-72
2022/01/22 14:26:42;;;;;;;88.30;39.85;;;768.50;537.60;;;;;;5075912;28;20031;-78
2022/01/22 14:29:14;;;;;;;76.55;35.22;;;589.20;691.20;;;;;;5073458;28;20062;-71
2022/01/22 14:31:40;;;;;;;74.85;31.77;;;461.30;844.80;;;;;;5076175;28;20029;-74